DuBois Regional Airport
KDUJ : now visible

Airfield :











YOU CAN JOIN US ON...

 
LOGIN :

Register | Disclaimer

   EN    FR    IT 

 









Legend :    VFR   Marginal VFR   IFR   Intensive IFR   Very Intensive IFR
Visi :
Ceiling :
>= 8 km
>= 3000ft
5 to 8 km
1000 to 3000 ft
1500m to 5 km
500 to 1000 ft
800 to 1500m
200 to 500 ft
< 800m
< 200 ft
Symbols :   Thunderstorms  Fog  Heavy snow  Heavy precipitations  Wind > 20 kt






- Airport Elevation : 1817 ft
- IATA code : DUJ


KDUJ - DuBois Regional

CURRENT METAR :
  • 261713Z AUTO 22007KT 10SM SCT010 BKN015 OVC023 07/06 A2977 RMK AO2 T00720061

EXPIRED METARs :
  • 261700Z AUTO 22006KT 10SM FEW007 OVC013 07/06 A2978 RMK AO2 T00720061
  • 261653Z AUTO 21006KT 10SM BKN008 OVC014 07/06 A2978 RMK AO2 CIG 006V012 SLP092 T00720061
  • 261637Z AUTO 21004KT 8SM BKN005 BKN011 OVC014 07/06 A2979 RMK AO2 T00720061
  • 261615Z AUTO 22007KT 4SM BR OVC002 07/06 A2980 RMK AO2 T00670056
  • 261606Z AUTO 21005KT 2SM BR OVC002 07/06 A2981 RMK AO2 T00670056
  • 261553Z AUTO 00000KT 1/2SM FG VV002 07/06 A2981 RMK AO2 SLP103 T00670056
  • 261535Z AUTO 00000KT 1/2SM FG VV002 06/05 A2981 RMK AO2 T00560050
  • 261508Z AUTO 00000KT 1 1/4SM BR OVC002 06/04 A2981 RMK AO2 T00560044
  • 261453Z AUTO 00000KT 1/2SM FG VV003 04/04 A2981 RMK AO2 SLP106 T00440039 50004

TAF KDUJ
Valid from the 26 at 18:00 until the 27 at 18:00 UTC


261731Z 2618/2718 18006KT P6SM OVC010
FM262000 16005KT 5SM -SHRA OVC008
FM270000 24005KT 2SM SHRA BR OVC007
FM270500 26010G18KT 1SM -SHSN OVC003
FM270900 26015G25KT 2SM -SHSN OVC006
FM271500 27018G30KT P6SM VCSH OVC011



MET'MAP, your aeronautical weather chart ! - Copyright ORBIFLY December 2007 - Disclaimer

ORBIFLY MET'MAP TEAM :

Programming & Development : Alexandra Zaïnal
Concept & original design : Baudouin d'Aumeries
Assistance for programming : Marc-Olivier Méhu
Technical & hardware support : Manuel Goepfert

Contact : metmap@orbifly.com




SOURCES & CREDITS :

   NOAA       Earth
Advisory